createdAt,value
2024-05-09T00:00:31.561Z,995.76
2024-05-09T00:01:26.859Z,995.75
2024-05-09T00:02:26.935Z,995.74
2024-05-09T00:03:26.879Z,995.73
2024-05-09T00:04:26.860Z,995.72
2024-05-09T00:05:26.812Z,995.72
2024-05-09T00:06:26.764Z,995.71
2024-05-09T00:07:26.754Z,995.71
2024-05-09T00:08:26.765Z,995.70
2024-05-09T00:09:26.781Z,995.70
2024-05-09T00:10:35.020Z,995.69
2024-05-09T00:11:26.826Z,995.69
2024-05-09T00:12:26.748Z,995.68
2024-05-09T00:13:26.703Z,995.68
2024-05-09T00:14:26.847Z,995.67
2024-05-09T00:15:26.696Z,995.67
2024-05-09T00:16:26.672Z,995.67
2024-05-09T00:17:26.881Z,995.68
2024-05-09T00:18:26.816Z,995.69
2024-05-09T00:19:26.709Z,995.69
2024-05-09T00:20:35.099Z,995.69
2024-05-09T00:21:26.633Z,995.70
2024-05-09T00:22:26.620Z,995.70
2024-05-09T00:23:26.671Z,995.70
2024-05-09T00:24:26.580Z,995.69
2024-05-09T00:25:26.589Z,995.69
2024-05-09T00:26:26.614Z,995.69
2024-05-09T00:27:26.585Z,995.69
2024-05-09T00:28:26.546Z,995.69
2024-05-09T00:29:26.721Z,995.69
2024-05-09T00:30:33.540Z,995.69
2024-05-09T00:31:26.518Z,995.68
2024-05-09T00:32:26.831Z,995.67
2024-05-09T00:33:26.968Z,995.66
2024-05-09T00:34:26.629Z,995.65
2024-05-09T00:35:26.578Z,995.64
2024-05-09T00:36:26.523Z,995.63
2024-05-09T00:37:26.438Z,995.61
2024-05-09T00:38:26.522Z,995.59
2024-05-09T00:39:26.437Z,995.59
2024-05-09T00:40:35.602Z,995.58
2024-05-09T00:41:26.445Z,995.58
2024-05-09T00:42:26.438Z,995.58
2024-05-09T00:43:26.377Z,995.58
2024-05-09T00:44:26.498Z,995.58
2024-05-09T00:45:26.359Z,995.59
2024-05-09T00:46:26.359Z,995.59
2024-05-09T00:47:26.608Z,995.60
2024-05-09T00:48:26.746Z,995.59
2024-05-09T00:49:26.590Z,995.60
2024-05-09T00:50:35.266Z,995.59
2024-05-09T00:51:26.311Z,995.59
2024-05-09T00:52:26.305Z,995.59
2024-05-09T00:53:26.356Z,995.60
2024-05-09T00:54:26.299Z,995.61
2024-05-09T00:55:26.291Z,995.61
2024-05-09T00:56:26.386Z,995.60
2024-05-09T00:57:26.250Z,995.60
2024-05-09T00:58:26.246Z,995.59
2024-05-09T00:59:26.338Z,995.59
2024-05-09T01:00:31.908Z,995.59
2024-05-09T01:01:26.286Z,995.59
2024-05-09T01:02:26.336Z,995.59
2024-05-09T01:03:26.518Z,995.59
2024-05-09T01:04:26.199Z,995.59
2024-05-09T01:05:26.220Z,995.59
2024-05-09T01:06:26.156Z,995.59
2024-05-09T01:07:26.168Z,995.60
2024-05-09T01:08:26.249Z,995.61
2024-05-09T01:09:26.114Z,995.61
2024-05-09T01:10:33.572Z,995.61
2024-05-09T01:11:26.256Z,995.62
2024-05-09T01:12:26.142Z,995.62
2024-05-09T01:13:26.105Z,995.62
2024-05-09T01:14:26.205Z,995.62
2024-05-09T01:15:26.068Z,995.62
2024-05-09T01:16:26.051Z,995.62
2024-05-09T01:17:26.195Z,995.62
2024-05-09T01:18:26.136Z,995.61
2024-05-09T01:19:26.365Z,995.61
2024-05-09T01:20:37.204Z,995.60
2024-05-09T01:21:26.059Z,995.59
2024-05-09T01:22:25.996Z,995.57
2024-05-09T01:23:26.055Z,995.56
2024-05-09T01:24:25.980Z,995.56
2024-05-09T01:25:25.969Z,995.55
2024-05-09T01:26:26.039Z,995.54
2024-05-09T01:27:25.934Z,995.54
2024-05-09T01:28:25.948Z,995.53
2024-05-09T01:29:26.083Z,995.52
2024-05-09T01:30:33.008Z,995.53
2024-05-09T01:31:25.897Z,995.53
2024-05-09T01:32:26.014Z,995.53
2024-05-09T01:33:26.188Z,995.53
2024-05-09T01:34:25.862Z,995.54
2024-05-09T01:35:25.902Z,995.55
2024-05-09T01:36:25.841Z,995.56
2024-05-09T01:37:25.841Z,995.57
2024-05-09T01:38:25.837Z,995.58
2024-05-09T01:39:25.815Z,995.59
2024-05-09T01:40:36.114Z,995.59
2024-05-09T01:41:25.867Z,995.59
2024-05-09T01:42:25.785Z,995.58
2024-05-09T01:43:25.764Z,995.57
2024-05-09T01:44:25.796Z,995.57
2024-05-09T01:45:25.750Z,995.56
2024-05-09T01:46:25.793Z,995.55
2024-05-09T01:47:26.020Z,995.54
2024-05-09T01:48:25.913Z,995.53
2024-05-09T01:49:25.848Z,995.53
2024-05-09T01:50:37.025Z,995.53
2024-05-09T01:51:25.680Z,995.52
2024-05-09T01:52:25.719Z,995.52
2024-05-09T01:53:25.748Z,995.52
2024-05-09T01:54:25.676Z,995.51
2024-05-09T01:55:25.656Z,995.50
2024-05-09T01:56:25.674Z,995.50
2024-05-09T01:57:25.617Z,995.49
2024-05-09T01:58:25.626Z,995.49
2024-05-09T01:59:25.769Z,995.49
2024-05-09T02:00:34.188Z,995.48
2024-05-09T02:01:25.607Z,995.47
2024-05-09T02:02:25.647Z,995.48
2024-05-09T02:03:25.676Z,995.50
2024-05-09T02:04:25.871Z,995.51
2024-05-09T02:05:25.652Z,995.52
2024-05-09T02:06:25.531Z,995.53
2024-05-09T02:07:25.548Z,995.54
2024-05-09T02:08:25.562Z,995.55
2024-05-09T02:09:25.513Z,995.55
2024-05-09T02:10:32.054Z,995.55
2024-05-09T02:11:25.562Z,995.55
2024-05-09T02:12:25.632Z,995.55
2024-05-09T02:13:25.450Z,995.54
2024-05-09T02:14:25.571Z,995.54
2024-05-09T02:15:25.422Z,995.53
2024-05-09T02:16:25.420Z,995.53
2024-05-09T02:17:25.597Z,995.52
2024-05-09T02:18:25.598Z,995.51
2024-05-09T02:19:25.511Z,995.51
2024-05-09T02:20:33.833Z,995.52
2024-05-09T02:21:25.365Z,995.53
2024-05-09T02:22:25.374Z,995.54
2024-05-09T02:23:25.382Z,995.56
2024-05-09T02:24:25.360Z,995.58
2024-05-09T02:25:25.357Z,995.58
2024-05-09T02:26:25.416Z,995.58
2024-05-09T02:27:25.298Z,995.56
2024-05-09T02:28:25.299Z,995.55
2024-05-09T02:29:25.403Z,995.55
2024-05-09T02:30:35.158Z,995.54
2024-05-09T02:31:25.270Z,995.54
2024-05-09T02:32:25.481Z,995.53
2024-05-09T02:33:25.483Z,995.53
2024-05-09T02:34:25.373Z,995.53
2024-05-09T02:35:25.274Z,995.52
2024-05-09T02:36:25.216Z,995.52
2024-05-09T02:37:25.186Z,995.51
2024-05-09T02:38:25.295Z,995.51
2024-05-09T02:39:25.181Z,995.51
2024-05-09T02:40:33.436Z,995.51
2024-05-09T02:41:25.255Z,995.51
2024-05-09T02:42:25.146Z,995.51
2024-05-09T02:43:25.143Z,995.50
2024-05-09T02:44:25.248Z,995.49
2024-05-09T02:45:25.114Z,995.49
2024-05-09T02:46:25.114Z,995.48
2024-05-09T02:47:25.230Z,995.48
2024-05-09T02:48:25.204Z,995.48
2024-05-09T02:49:25.213Z,995.48
2024-05-09T02:50:33.566Z,995.48
2024-05-09T02:51:25.049Z,995.48
2024-05-09T02:52:25.035Z,995.47
2024-05-09T02:53:25.080Z,995.47
2024-05-09T02:54:25.026Z,995.47
2024-05-09T02:55:25.014Z,995.47
2024-05-09T02:56:25.120Z,995.49
2024-05-09T02:57:24.992Z,995.49
2024-05-09T02:58:25.004Z,995.50
2024-05-09T02:59:25.071Z,995.50
2024-05-09T03:00:34.264Z,995.50
2024-05-09T03:01:25.012Z,995.50
2024-05-09T03:02:25.034Z,995.50
2024-05-09T03:03:25.143Z,995.50
2024-05-09T03:04:24.968Z,995.50
2024-05-09T03:05:24.957Z,995.51
2024-05-09T03:06:24.893Z,995.51
2024-05-09T03:07:24.886Z,995.51
2024-05-09T03:08:24.890Z,995.50
2024-05-09T03:09:24.857Z,995.49
2024-05-09T03:10:28.637Z,995.49
2024-05-09T03:11:25.037Z,995.49
2024-05-09T03:12:24.884Z,995.49
2024-05-09T03:13:24.767Z,995.49
2024-05-09T03:14:24.945Z,995.48
2024-05-09T03:15:24.776Z,995.48
2024-05-09T03:16:24.766Z,995.47
2024-05-09T03:17:24.976Z,995.47
2024-05-09T03:18:24.768Z,995.46
2024-05-09T03:19:24.775Z,995.45
2024-05-09T03:20:32.284Z,995.44
2024-05-09T03:21:24.684Z,995.44
2024-05-09T03:22:24.685Z,995.44
2024-05-09T03:23:24.688Z,995.43
2024-05-09T03:24:24.641Z,995.43
2024-05-09T03:25:24.635Z,995.44
2024-05-09T03:26:24.719Z,995.45
2024-05-09T03:27:24.604Z,995.46
2024-05-09T03:28:24.627Z,995.48
2024-05-09T03:29:24.733Z,995.49
2024-05-09T03:30:31.197Z,995.50
2024-05-09T03:31:24.629Z,995.51
2024-05-09T03:32:24.667Z,995.52
2024-05-09T03:33:24.818Z,995.54
2024-05-09T03:34:24.570Z,995.55
2024-05-09T03:35:24.620Z,995.56
2024-05-09T03:36:24.533Z,995.57
2024-05-09T03:37:24.501Z,995.57
2024-05-09T03:38:24.539Z,995.57
2024-05-09T03:39:24.476Z,995.57
2024-05-09T03:40:28.922Z,995.57
2024-05-09T03:41:24.579Z,995.57
2024-05-09T03:42:24.468Z,995.56
2024-05-09T03:43:24.463Z,995.55
2024-05-09T03:44:24.457Z,995.54
2024-05-09T03:45:24.421Z,995.53
2024-05-09T03:46:24.458Z,995.52
2024-05-09T03:47:24.512Z,995.52
2024-05-09T03:48:24.553Z,995.51
2024-05-09T03:49:24.771Z,995.51
2024-05-09T03:50:30.173Z,995.51
2024-05-09T03:51:24.353Z,995.50
2024-05-09T03:52:24.372Z,995.50
2024-05-09T03:53:24.381Z,995.50
2024-05-09T03:54:24.334Z,995.49
2024-05-09T03:55:24.311Z,995.49
2024-05-09T03:56:24.425Z,995.49
2024-05-09T03:57:24.309Z,995.48
2024-05-09T03:58:24.293Z,995.48
2024-05-09T03:59:24.421Z,995.48
2024-05-09T04:00:31.373Z,995.48
2024-05-09T04:01:24.340Z,995.50
2024-05-09T04:02:24.423Z,995.50
2024-05-09T04:03:24.490Z,995.51
2024-05-09T04:04:24.332Z,995.52
2024-05-09T04:05:24.246Z,995.53
2024-05-09T04:06:24.231Z,995.54
2024-05-09T04:07:24.215Z,995.55
2024-05-09T04:08:24.331Z,995.55
2024-05-09T04:09:24.288Z,995.55
2024-05-09T04:10:31.057Z,995.55
2024-05-09T04:11:24.255Z,995.55
2024-05-09T04:12:24.220Z,995.55
2024-05-09T04:13:24.129Z,995.55
2024-05-09T04:14:24.164Z,995.55
2024-05-09T04:15:24.112Z,995.55
2024-05-09T04:16:24.089Z,995.56
2024-05-09T04:17:24.186Z,995.57
2024-05-09T04:18:24.216Z,995.58
2024-05-09T04:19:24.344Z,995.59
2024-05-09T04:20:33.460Z,995.61
2024-05-09T04:21:24.049Z,995.63
2024-05-09T04:22:24.028Z,995.64
2024-05-09T04:23:24.129Z,995.65
2024-05-09T04:24:24.035Z,995.66
2024-05-09T04:25:23.989Z,995.67
2024-05-09T04:26:24.061Z,995.67
2024-05-09T04:27:24.001Z,995.67
2024-05-09T04:28:23.963Z,995.67
2024-05-09T04:29:24.051Z,995.67
2024-05-09T04:30:34.321Z,995.68
2024-05-09T04:31:23.954Z,995.68
2024-05-09T04:32:24.162Z,995.69
2024-05-09T04:33:24.178Z,995.69
2024-05-09T04:34:23.978Z,995.69
2024-05-09T04:35:24.001Z,995.70
2024-05-09T04:36:23.877Z,995.70
2024-05-09T04:37:23.921Z,995.70
2024-05-09T04:38:23.947Z,995.71
2024-05-09T04:39:23.853Z,995.71
2024-05-09T04:40:31.233Z,995.71
2024-05-09T04:41:23.857Z,995.71
2024-05-09T04:42:23.856Z,995.71
2024-05-09T04:43:23.859Z,995.71
2024-05-09T04:44:23.920Z,995.71
2024-05-09T04:45:23.781Z,995.71
2024-05-09T04:46:23.768Z,995.71
2024-05-09T04:47:23.906Z,995.70
2024-05-09T04:48:23.884Z,995.71
2024-05-09T04:49:24.054Z,995.70
2024-05-09T04:50:32.748Z,995.70
2024-05-09T04:51:23.731Z,995.70
2024-05-09T04:52:23.705Z,995.70
2024-05-09T04:53:23.761Z,995.70
2024-05-09T04:54:33.651Z,995.70
2024-05-09T04:55:23.729Z,995.70
2024-05-09T04:56:23.687Z,995.70
2024-05-09T04:57:23.666Z,995.70
2024-05-09T04:58:23.656Z,995.69
2024-05-09T04:59:23.657Z,995.70
2024-05-09T05:00:32.397Z,995.71
2024-05-09T05:01:23.675Z,995.72
2024-05-09T05:02:23.675Z,995.74
2024-05-09T05:03:23.775Z,995.75
2024-05-09T05:04:23.591Z,995.76
2024-05-09T05:05:23.607Z,995.77
2024-05-09T05:06:23.584Z,995.78
2024-05-09T05:07:23.592Z,995.78
2024-05-09T05:08:23.575Z,995.79
2024-05-09T05:09:23.532Z,995.78
2024-05-09T05:10:32.920Z,995.77
2024-05-09T05:11:23.623Z,995.76
2024-05-09T05:12:23.684Z,995.76
2024-05-09T05:13:24.359Z,995.74
2024-05-09T05:14:23.658Z,995.74
2024-05-09T05:15:23.464Z,995.74
2024-05-09T05:16:23.458Z,995.74
2024-05-09T05:17:23.558Z,995.74
2024-05-09T05:18:23.510Z,995.76
2024-05-09T05:19:23.513Z,995.77
2024-05-09T05:20:30.931Z,995.79
2024-05-09T05:21:23.435Z,995.80
2024-05-09T05:22:23.422Z,995.81
2024-05-09T05:23:23.676Z,995.82
2024-05-09T05:24:23.372Z,995.83
2024-05-09T05:25:23.379Z,995.83
2024-05-09T05:26:23.435Z,995.83
2024-05-09T05:27:23.329Z,995.84
2024-05-09T05:28:23.553Z,995.84
2024-05-09T05:29:23.391Z,995.84
2024-05-09T05:30:29.005Z,995.85
2024-05-09T05:31:23.374Z,995.86
2024-05-09T05:32:23.484Z,995.86
2024-05-09T05:33:23.730Z,995.87
2024-05-09T05:34:23.278Z,995.87
2024-05-09T05:35:23.412Z,995.88
2024-05-09T05:36:23.240Z,995.88
2024-05-09T05:37:23.228Z,995.88
2024-05-09T05:38:26.286Z,995.88
2024-05-09T05:39:23.289Z,995.88
2024-05-09T05:40:32.189Z,995.88
2024-05-09T05:41:23.247Z,995.89
2024-05-09T05:42:23.179Z,995.89
2024-05-09T05:43:23.169Z,995.89
2024-05-09T05:44:23.196Z,995.90
2024-05-09T05:45:23.210Z,995.91
2024-05-09T05:46:23.125Z,995.91
2024-05-09T05:47:23.208Z,995.90
2024-05-09T05:48:23.375Z,995.89
2024-05-09T05:49:23.240Z,995.89
2024-05-09T05:50:28.065Z,995.88
2024-05-09T05:51:23.099Z,995.86
2024-05-09T05:52:23.080Z,995.86
2024-05-09T05:53:23.117Z,995.85
2024-05-09T05:54:23.078Z,995.85
2024-05-09T05:55:23.043Z,995.86
2024-05-09T05:56:23.104Z,995.87
2024-05-09T05:57:23.043Z,995.89
2024-05-09T05:58:23.005Z,995.91
2024-05-09T05:59:23.020Z,995.94
2024-05-09T06:00:29.842Z,995.95
2024-05-09T06:01:23.028Z,995.96
2024-05-09T06:02:23.074Z,995.98
2024-05-09T06:03:23.158Z,995.98
2024-05-09T06:04:23.005Z,995.97
2024-05-09T06:05:24.260Z,995.97
2024-05-09T06:06:22.928Z,995.95
2024-05-09T06:07:22.908Z,995.94
2024-05-09T06:08:23.733Z,995.94
2024-05-09T06:09:22.891Z,995.94
2024-05-09T06:10:29.615Z,995.94
2024-05-09T06:11:22.971Z,995.94
2024-05-09T06:12:23.040Z,995.93
2024-05-09T06:13:22.865Z,995.93
2024-05-09T06:14:22.966Z,995.93
2024-05-09T06:15:22.828Z,995.93
2024-05-09T06:16:22.877Z,995.95
2024-05-09T06:17:22.971Z,995.95
2024-05-09T06:18:23.098Z,995.94
2024-05-09T06:19:22.922Z,995.94
2024-05-09T06:20:31.593Z,995.93
2024-05-09T06:21:22.825Z,995.93
2024-05-09T06:22:22.757Z,995.93
2024-05-09T06:23:22.868Z,995.93
2024-05-09T06:24:22.823Z,995.93
2024-05-09T06:25:22.722Z,995.93
2024-05-09T06:26:22.763Z,995.92
2024-05-09T06:27:22.697Z,995.93
2024-05-09T06:28:22.693Z,995.93
2024-05-09T06:29:22.697Z,995.93
2024-05-09T06:30:30.128Z,995.94
2024-05-09T06:31:22.666Z,995.94
2024-05-09T06:32:22.810Z,995.94
2024-05-09T06:33:22.844Z,995.94
2024-05-09T06:34:22.911Z,995.95
2024-05-09T06:35:22.661Z,995.95
2024-05-09T06:36:22.596Z,995.95
2024-05-09T06:37:22.595Z,995.94
2024-05-09T06:38:22.607Z,995.95
2024-05-09T06:39:22.605Z,995.96
2024-05-09T06:40:25.921Z,995.97
2024-05-09T06:41:22.606Z,995.97
2024-05-09T06:42:22.560Z,995.98
2024-05-09T06:43:22.535Z,995.97
2024-05-09T06:44:22.688Z,995.97
2024-05-09T06:45:22.514Z,995.98
2024-05-09T06:46:22.526Z,995.97
2024-05-09T06:47:22.531Z,995.98
2024-05-09T06:48:23.053Z,995.98
2024-05-09T06:49:22.657Z,995.98
2024-05-09T06:50:24.485Z,995.99
2024-05-09T06:51:22.659Z,996.00
2024-05-09T06:52:22.446Z,996.00
2024-05-09T06:53:22.517Z,996.02
2024-05-09T06:54:22.449Z,996.02
2024-05-09T06:55:22.417Z,996.02
2024-05-09T06:56:22.440Z,996.02
2024-05-09T06:57:22.413Z,996.03
2024-05-09T06:58:22.380Z,996.02
2024-05-09T06:59:22.586Z,996.01
2024-05-09T07:00:27.657Z,996.01
2024-05-09T07:01:22.540Z,996.01
2024-05-09T07:02:22.579Z,996.00
2024-05-09T07:03:22.500Z,995.99
2024-05-09T07:04:22.454Z,995.98
2024-05-09T07:05:22.534Z,995.98
2024-05-09T07:06:22.307Z,995.97
2024-05-09T07:07:22.314Z,995.98
2024-05-09T07:08:22.379Z,995.98
2024-05-09T07:09:22.315Z,995.97
2024-05-09T07:10:28.878Z,995.96
2024-05-09T07:11:22.437Z,995.97
2024-05-09T07:12:22.369Z,995.97
2024-05-09T07:13:22.224Z,995.98
2024-05-09T07:14:22.245Z,995.99
2024-05-09T07:15:22.221Z,996.00
2024-05-09T07:16:22.193Z,996.01
2024-05-09T07:17:22.337Z,996.02
2024-05-09T07:18:22.471Z,996.01
2024-05-09T07:19:22.211Z,996.02
2024-05-09T07:20:31.403Z,996.01
2024-05-09T07:21:22.192Z,996.01
2024-05-09T07:22:22.131Z,996.01
2024-05-09T07:23:22.211Z,996.01
2024-05-09T07:24:22.157Z,996.00
2024-05-09T07:25:22.119Z,995.99
2024-05-09T07:26:22.126Z,995.98
2024-05-09T07:27:22.082Z,995.96
2024-05-09T07:28:22.076Z,995.95
2024-05-09T07:29:22.099Z,995.95
2024-05-09T07:30:27.601Z,995.94
2024-05-09T07:31:22.047Z,995.94
2024-05-09T07:32:22.223Z,995.95
2024-05-09T07:33:23.579Z,995.94
2024-05-09T07:34:22.204Z,995.95
2024-05-09T07:35:22.042Z,995.95
2024-05-09T07:36:21.999Z,995.94
2024-05-09T07:37:21.996Z,995.93
2024-05-09T07:38:22.116Z,995.92
2024-05-09T07:39:21.967Z,995.91
2024-05-09T07:40:31.592Z,995.91
2024-05-09T07:41:21.977Z,995.91
2024-05-09T07:42:21.926Z,995.90
2024-05-09T07:43:21.937Z,995.90
2024-05-09T07:44:21.935Z,995.90
2024-05-09T07:45:40.607Z,995.90
2024-05-09T07:48:56.518Z,995.91
2024-05-09T07:52:22.641Z,995.90
2024-05-09T07:53:42.097Z,995.90
2024-05-09T07:53:53.403Z,995.90
2024-05-09T07:54:45.061Z,995.90
2024-05-09T07:55:45.133Z,995.90
2024-05-09T07:56:45.001Z,995.89
2024-05-09T07:57:44.944Z,995.90
2024-05-09T07:58:44.860Z,995.90
2024-05-09T07:59:44.862Z,995.90
2024-05-09T08:00:45.044Z,995.90
2024-05-09T08:01:44.896Z,995.91
2024-05-09T08:02:44.847Z,995.90
2024-05-09T08:03:44.974Z,995.90
2024-05-09T08:04:44.905Z,995.88
2024-05-09T08:05:44.852Z,995.88
2024-05-09T08:06:44.807Z,995.89
2024-05-09T08:07:44.756Z,995.88
2024-05-09T08:08:44.743Z,995.88
2024-05-09T08:09:44.758Z,995.88
2024-05-09T08:10:44.855Z,995.87
2024-05-09T08:11:44.763Z,995.88
2024-05-09T08:12:44.685Z,995.87
2024-05-09T08:13:44.679Z,995.87
2024-05-09T08:14:44.693Z,995.86
2024-05-09T08:15:44.885Z,995.86
2024-05-09T08:16:44.651Z,995.87
2024-05-09T08:17:44.699Z,995.88
2024-05-09T08:18:44.777Z,995.88
2024-05-09T08:19:44.710Z,995.88
2024-05-09T08:20:44.628Z,995.88
2024-05-09T08:21:44.656Z,995.86
2024-05-09T08:22:44.588Z,995.85
2024-05-09T08:23:44.567Z,995.84
2024-05-09T08:24:44.586Z,995.82
2024-05-09T08:25:44.569Z,995.81
2024-05-09T08:26:44.558Z,995.80
2024-05-09T08:27:44.549Z,995.78
2024-05-09T08:28:44.519Z,995.77
2024-05-09T08:29:44.555Z,995.76
2024-05-09T08:30:44.792Z,995.75
2024-05-09T08:31:44.610Z,995.74
2024-05-09T08:32:44.635Z,995.73
2024-05-09T08:33:44.682Z,995.74
2024-05-09T08:34:44.627Z,995.75
2024-05-09T08:35:44.454Z,995.75
2024-05-09T08:36:44.494Z,995.76
2024-05-09T08:37:44.500Z,995.75
2024-05-09T08:38:44.447Z,995.76
2024-05-09T08:39:44.460Z,995.75
2024-05-09T08:40:44.620Z,995.74
2024-05-09T08:41:44.394Z,995.74
2024-05-09T08:42:44.453Z,995.72
2024-05-09T08:43:44.388Z,995.73
2024-05-09T08:44:44.348Z,995.74
2024-05-09T08:45:45.431Z,995.74
2024-05-09T08:46:44.313Z,995.75
2024-05-09T08:47:44.397Z,995.76
2024-05-09T08:48:44.629Z,995.77
2024-05-09T08:49:44.324Z,995.77
2024-05-09T08:50:45.434Z,995.78
2024-05-09T08:51:44.299Z,995.78
2024-05-09T08:52:44.234Z,995.77
2024-05-09T08:53:44.264Z,995.78
2024-05-09T08:54:44.326Z,995.76
2024-05-09T08:55:44.663Z,995.75
2024-05-09T08:56:44.213Z,995.73
2024-05-09T08:57:44.243Z,995.73
2024-05-09T08:58:44.195Z,995.70
2024-05-09T08:59:44.173Z,995.72
2024-05-09T09:00:44.862Z,995.72
2024-05-09T09:01:44.336Z,995.69
2024-05-09T09:02:44.578Z,995.68
2024-05-09T09:03:44.317Z,995.67
2024-05-09T09:04:44.254Z,995.68
2024-05-09T09:05:44.135Z,995.68
2024-05-09T09:06:44.278Z,995.68
2024-05-09T09:07:44.089Z,995.68
2024-05-09T09:08:44.072Z,995.69
2024-05-09T09:09:44.336Z,995.70
2024-05-09T09:10:44.215Z,995.70
2024-05-09T09:11:44.166Z,995.69
2024-05-09T09:12:44.315Z,995.69
2024-05-09T09:13:44.023Z,995.71
2024-05-09T09:14:44.061Z,995.69
2024-05-09T09:15:44.149Z,995.73
2024-05-09T09:16:43.990Z,995.72
2024-05-09T09:17:44.095Z,995.73
2024-05-09T09:18:44.254Z,995.72
2024-05-09T09:19:44.072Z,995.72
2024-05-09T09:20:44.163Z,995.73
2024-05-09T09:21:44.043Z,995.72
2024-05-09T09:22:43.938Z,995.72
2024-05-09T09:23:43.934Z,995.72
2024-05-09T09:24:43.990Z,995.71
2024-05-09T09:25:43.940Z,995.69
2024-05-09T09:26:43.886Z,995.69
2024-05-09T09:27:43.964Z,995.69
2024-05-09T09:28:43.869Z,995.68
2024-05-09T09:29:43.855Z,995.68
2024-05-09T09:30:43.985Z,995.68
2024-05-09T09:31:43.876Z,995.68
2024-05-09T09:32:43.901Z,995.67
2024-05-09T09:33:44.119Z,995.66
2024-05-09T09:34:43.936Z,995.66
2024-05-09T09:35:43.786Z,995.66
2024-05-09T09:36:43.893Z,995.66
2024-05-09T09:37:43.776Z,995.67
2024-05-09T09:38:43.776Z,995.67
2024-05-09T09:39:43.814Z,995.67
2024-05-09T09:40:48.274Z,995.66
2024-05-09T09:41:43.733Z,995.64
2024-05-09T09:42:43.783Z,995.63
2024-05-09T09:43:43.700Z,995.59
2024-05-09T09:44:47.735Z,995.58
2024-05-09T09:45:43.927Z,995.57
2024-05-09T09:46:43.662Z,995.57
2024-05-09T09:47:43.824Z,995.55
2024-05-09T09:48:43.743Z,995.55
2024-05-09T09:49:43.729Z,995.54
2024-05-09T09:50:43.623Z,995.54
2024-05-09T09:51:43.902Z,995.52
2024-05-09T09:52:43.611Z,995.51
2024-05-09T09:53:43.620Z,995.50
2024-05-09T09:54:43.648Z,995.50
2024-05-09T09:55:43.578Z,995.52
2024-05-09T09:56:43.564Z,995.50
2024-05-09T09:57:43.741Z,995.48
2024-05-09T09:58:43.567Z,995.48
2024-05-09T09:59:43.593Z,995.47
2024-05-09T10:00:43.831Z,995.47
2024-05-09T10:01:43.707Z,995.49
2024-05-09T10:02:43.535Z,995.49
2024-05-09T10:03:43.667Z,995.47
2024-05-09T10:04:43.599Z,995.46
2024-05-09T10:05:46.304Z,995.46
2024-05-09T10:06:43.536Z,995.45
2024-05-09T10:07:43.468Z,995.43
2024-05-09T10:08:43.460Z,995.41
2024-05-09T10:09:43.488Z,995.41
2024-05-09T10:10:43.681Z,995.42
2024-05-09T10:11:49.103Z,995.42
2024-05-09T10:12:43.425Z,995.41
2024-05-09T10:13:43.388Z,995.39
2024-05-09T10:14:43.379Z,995.39
2024-05-09T10:15:43.412Z,995.40
2024-05-09T10:16:43.354Z,995.40
2024-05-09T10:17:43.527Z,995.38
2024-05-09T10:18:43.552Z,995.38
2024-05-09T10:19:43.370Z,995.37
2024-05-09T10:20:43.332Z,995.36
2024-05-09T10:21:43.383Z,995.35
2024-05-09T10:22:43.295Z,995.33
2024-05-09T10:23:43.311Z,995.31
2024-05-09T10:24:43.316Z,995.31
2024-05-09T10:25:43.288Z,995.30
2024-05-09T10:26:43.305Z,995.30
2024-05-09T10:27:43.304Z,995.30
2024-05-09T10:28:43.265Z,995.30
2024-05-09T10:29:43.242Z,995.27
2024-05-09T10:30:43.866Z,995.27
2024-05-09T10:31:43.374Z,995.27
2024-05-09T10:32:43.355Z,995.25
2024-05-09T10:33:43.305Z,995.23
2024-05-09T10:34:43.286Z,995.22
2024-05-09T10:35:43.148Z,995.21
2024-05-09T10:36:43.262Z,995.19
2024-05-09T10:37:43.174Z,995.20
2024-05-09T10:38:43.215Z,995.19
2024-05-09T10:39:43.279Z,995.17
2024-05-09T10:40:43.141Z,995.14
2024-05-09T10:41:43.142Z,995.14
2024-05-09T10:42:43.192Z,995.14
2024-05-09T10:43:43.068Z,995.14
2024-05-09T10:44:43.049Z,995.16
2024-05-09T10:45:43.098Z,995.14
2024-05-09T10:46:43.050Z,995.12
2024-05-09T10:47:43.145Z,995.12
2024-05-09T10:48:43.248Z,995.11
2024-05-09T10:49:43.044Z,995.10
2024-05-09T10:50:42.995Z,995.09
2024-05-09T10:51:43.060Z,995.07
2024-05-09T10:52:42.959Z,995.09
2024-05-09T10:53:43.080Z,995.06
2024-05-09T10:54:43.003Z,995.08
2024-05-09T10:55:42.935Z,995.08
2024-05-09T10:56:42.935Z,995.06
2024-05-09T10:57:42.950Z,994.99
2024-05-09T10:58:43.067Z,994.96
2024-05-09T10:59:42.949Z,994.93
2024-05-09T11:00:43.049Z,994.92
2024-05-09T11:01:43.030Z,994.91
2024-05-09T11:02:43.226Z,994.87
2024-05-09T11:03:43.349Z,994.87
2024-05-09T11:04:43.033Z,994.85
2024-05-09T11:05:43.205Z,994.84
2024-05-09T11:06:42.926Z,994.85
2024-05-09T11:07:42.813Z,994.81
2024-05-09T11:08:42.797Z,994.81
2024-05-09T11:09:42.852Z,994.80
2024-05-09T11:10:42.926Z,994.81
2024-05-09T11:11:42.838Z,994.78
2024-05-09T11:12:42.775Z,994.81
2024-05-09T11:13:42.769Z,994.79
2024-05-09T11:14:42.743Z,994.84
2024-05-09T11:15:42.858Z,994.83
2024-05-09T11:16:42.769Z,994.80
2024-05-09T11:17:42.818Z,994.84
2024-05-09T11:18:42.872Z,994.84
2024-05-09T11:19:42.827Z,994.84
2024-05-09T11:20:42.823Z,994.81
2024-05-09T11:21:42.844Z,994.82
2024-05-09T11:22:42.704Z,994.83
2024-05-09T11:23:42.651Z,994.83
2024-05-09T11:24:42.743Z,994.82
2024-05-09T11:25:42.630Z,994.80
2024-05-09T11:26:42.652Z,994.80
2024-05-09T11:27:42.685Z,994.77
2024-05-09T11:28:42.646Z,994.76
2024-05-09T11:29:42.596Z,994.77
2024-05-09T11:30:42.635Z,994.74
2024-05-09T11:31:42.640Z,994.72
2024-05-09T11:32:42.668Z,994.72
2024-05-09T11:33:42.643Z,994.73
2024-05-09T11:34:42.618Z,994.70
2024-05-09T11:35:42.550Z,994.70
2024-05-09T11:36:42.712Z,994.70
2024-05-09T11:37:42.508Z,994.67
2024-05-09T11:38:42.572Z,994.67
2024-05-09T11:39:42.566Z,994.67
2024-05-09T11:40:42.623Z,994.66
2024-05-09T11:41:42.500Z,994.66
2024-05-09T11:42:42.548Z,994.65
2024-05-09T11:43:42.505Z,994.60
2024-05-09T11:44:42.533Z,994.63
2024-05-09T11:45:42.575Z,994.64
2024-05-09T11:46:42.420Z,994.66
2024-05-09T11:47:42.555Z,994.66
2024-05-09T11:48:42.591Z,994.66
2024-05-09T11:49:42.554Z,994.68
2024-05-09T11:50:42.474Z,994.68
2024-05-09T11:51:42.488Z,994.69
2024-05-09T11:52:42.388Z,994.67
2024-05-09T11:53:42.380Z,994.67
2024-05-09T11:54:42.382Z,994.64
2024-05-09T11:55:42.386Z,994.61
2024-05-09T11:56:42.409Z,994.59
2024-05-09T11:57:42.387Z,994.57
2024-05-09T11:58:42.349Z,994.59
2024-05-09T11:59:42.329Z,994.60
2024-05-09T12:00:42.453Z,994.57
2024-05-09T12:01:42.443Z,994.60
2024-05-09T12:02:42.282Z,994.63
2024-05-09T12:03:42.485Z,994.60
2024-05-09T12:04:42.615Z,994.60
2024-05-09T12:05:42.588Z,994.64
2024-05-09T12:06:42.314Z,994.64
2024-05-09T12:07:42.346Z,994.63
2024-05-09T12:08:42.244Z,994.62
2024-05-09T12:09:42.256Z,994.58
2024-05-09T12:10:42.471Z,994.55
2024-05-09T12:11:42.256Z,994.51
2024-05-09T12:12:42.245Z,994.47
2024-05-09T12:13:42.226Z,994.46
2024-05-09T12:14:42.168Z,994.46
2024-05-09T12:15:42.246Z,994.45
2024-05-09T12:16:42.317Z,994.45
2024-05-09T12:17:42.276Z,994.44
2024-05-09T12:18:42.274Z,994.45
2024-05-09T12:19:42.157Z,994.44
2024-05-09T12:20:42.130Z,994.43
2024-05-09T12:21:42.147Z,994.42
2024-05-09T12:22:42.106Z,994.42
2024-05-09T12:23:42.105Z,994.42
2024-05-09T12:24:42.172Z,994.42
2024-05-09T12:25:42.102Z,994.41
2024-05-09T12:26:42.074Z,994.41
2024-05-09T12:27:42.108Z,994.33
2024-05-09T12:28:42.059Z,994.34
2024-05-09T12:29:42.061Z,994.33
2024-05-09T12:30:42.255Z,994.34
2024-05-09T12:31:42.030Z,994.30
2024-05-09T12:32:42.140Z,994.33